createdAt,value
2023-05-19T00:01:32.116Z,101405.71
2023-05-19T00:04:03.462Z,101402.95
2023-05-19T00:06:33.138Z,101403.27
2023-05-19T00:09:05.142Z,101402.39
2023-05-19T00:11:36.624Z,101401.89
2023-05-19T00:14:06.951Z,101398.05
2023-05-19T00:16:36.636Z,101396.77
2023-05-19T00:19:06.391Z,101400.42
2023-05-19T00:21:37.112Z,101403.42
2023-05-19T00:24:06.059Z,101399.94
2023-05-19T00:26:34.877Z,101398.89
2023-05-19T00:29:06.596Z,101397.71
2023-05-19T00:31:35.425Z,101400.95
2023-05-19T00:34:04.642Z,101401.23
2023-05-19T00:36:35.236Z,101395.56
2023-05-19T00:39:06.218Z,101398.95
2023-05-19T00:41:35.216Z,101397.19
2023-05-19T00:44:05.632Z,101401.31
2023-05-19T00:46:34.565Z,101398.02
2023-05-19T00:49:04.550Z,101400.27
2023-05-19T00:51:34.472Z,101397.89
2023-05-19T00:54:04.267Z,101398.52
2023-05-19T00:56:33.602Z,101393.25
2023-05-19T00:59:02.862Z,101395.27
2023-05-19T01:01:32.738Z,101393.23
2023-05-19T01:04:02.552Z,101391.67
2023-05-19T01:06:31.752Z,101394.35
2023-05-19T01:09:02.168Z,101395.25
2023-05-19T01:11:30.969Z,101391.60
2023-05-19T01:13:59.753Z,101391.14
2023-05-19T01:16:32.525Z,101387.92
2023-05-19T01:19:15.020Z,101388.02
2023-05-19T01:21:55.869Z,101388.41
2023-05-19T01:24:43.633Z,101388.98
2023-05-19T01:27:31.103Z,101391.49
2023-05-19T01:30:09.487Z,101394.38
2023-05-19T01:32:42.313Z,101396.52
2023-05-19T01:35:13.121Z,101391.83
2023-05-19T01:37:43.010Z,101395.89
2023-05-19T01:40:12.409Z,101391.74
2023-05-19T01:42:42.113Z,101394.99
2023-05-19T01:45:11.897Z,101396.61
2023-05-19T01:47:42.559Z,101392.44
2023-05-19T01:50:12.195Z,101392.89
2023-05-19T01:52:41.107Z,101392.04
2023-05-19T01:55:10.726Z,101394.71
2023-05-19T01:57:40.617Z,101398.27
2023-05-19T02:00:16.051Z,101395.92
2023-05-19T02:02:54.845Z,101391.83
2023-05-19T02:05:35.439Z,101392.56
2023-05-19T02:08:18.553Z,101394.27
2023-05-19T02:10:51.171Z,101389.58
2023-05-19T02:13:24.867Z,101390.02
2023-05-19T02:15:58.482Z,101384.80
2023-05-19T02:18:30.280Z,101387.77
2023-05-19T02:20:59.361Z,101389.65
2023-05-19T02:23:28.041Z,101392.82
2023-05-19T02:25:59.252Z,101390.11
2023-05-19T02:28:28.745Z,101391.42
2023-05-19T02:30:59.815Z,101393.38
2023-05-19T02:33:33.451Z,101388.09
2023-05-19T02:36:02.569Z,101392.10
2023-05-19T02:38:31.394Z,101390.84
2023-05-19T02:41:01.467Z,101391.70
2023-05-19T02:43:31.003Z,101387.86
2023-05-19T02:46:00.243Z,101389.52
2023-05-19T02:48:29.186Z,101389.30
2023-05-19T02:50:58.047Z,101386.30
2023-05-19T02:53:28.861Z,101383.95
2023-05-19T02:55:57.663Z,101384.14
2023-05-19T02:58:26.445Z,101382.75
2023-05-19T03:00:57.179Z,101386.19
2023-05-19T03:03:27.453Z,101387.20
2023-05-19T03:05:57.449Z,101390.10
2023-05-19T03:08:26.343Z,101393.38
2023-05-19T03:10:56.920Z,101392.06
2023-05-19T03:13:25.875Z,101389.71
2023-05-19T03:15:57.315Z,101389.02
2023-05-19T03:18:26.981Z,101395.66
2023-05-19T03:20:56.843Z,101396.30
2023-05-19T03:23:26.976Z,101399.13
2023-05-19T03:25:56.699Z,101397.06
2023-05-19T03:28:27.857Z,101395.95
2023-05-19T03:30:57.594Z,101396.33
2023-05-19T03:33:31.861Z,101396.15
2023-05-19T03:36:01.488Z,101395.88
2023-05-19T03:38:32.133Z,101395.33
2023-05-19T03:41:01.827Z,101398.05
2023-05-19T03:43:31.047Z,101389.23
2023-05-19T03:46:04.239Z,101393.17
2023-05-19T03:48:51.814Z,101388.67
2023-05-19T03:51:52.904Z,101394.52
2023-05-19T03:54:30.151Z,101398.10
2023-05-19T03:56:59.577Z,101398.16
2023-05-19T03:59:28.788Z,101392.02
2023-05-19T04:01:59.060Z,101391.86
2023-05-19T04:04:29.281Z,101394.64
2023-05-19T04:06:58.324Z,101392.95
2023-05-19T04:09:27.490Z,101394.79
2023-05-19T04:11:57.164Z,101394.00
2023-05-19T04:14:26.577Z,101396.55
2023-05-19T04:16:56.169Z,101399.55
2023-05-19T04:19:25.269Z,101395.20
2023-05-19T04:21:57.461Z,101392.40
2023-05-19T04:24:26.598Z,101394.45
2023-05-19T04:26:56.979Z,101392.08
2023-05-19T04:29:27.318Z,101392.57
2023-05-19T04:31:58.236Z,101397.41
2023-05-19T04:34:29.008Z,101399.32
2023-05-19T04:37:00.143Z,101403.12
2023-05-19T04:39:30.888Z,101401.80
2023-05-19T04:42:00.337Z,101401.52
2023-05-19T04:44:32.652Z,101404.48
2023-05-19T04:47:02.881Z,101402.89
2023-05-19T04:49:31.786Z,101404.23
2023-05-19T04:52:00.783Z,101405.70
2023-05-19T04:54:33.254Z,101411.16
2023-05-19T04:57:02.246Z,101414.45
2023-05-19T04:59:33.230Z,101414.09
2023-05-19T05:02:02.470Z,101413.24
2023-05-19T05:04:31.833Z,101417.27
2023-05-19T05:07:00.569Z,101411.70
2023-05-19T05:09:30.368Z,101414.52
2023-05-19T05:12:00.417Z,101418.28
2023-05-19T05:14:31.375Z,101419.60
2023-05-19T05:17:00.608Z,101415.21
2023-05-19T05:19:29.753Z,101411.81
2023-05-19T05:21:59.189Z,101411.45
2023-05-19T05:24:28.986Z,101418.08
2023-05-19T05:27:00.692Z,101414.89
2023-05-19T05:29:30.133Z,101413.66
2023-05-19T05:31:59.284Z,101415.10
2023-05-19T05:34:28.488Z,101418.38
2023-05-19T05:36:57.440Z,101419.36
2023-05-19T05:39:29.183Z,101420.89
2023-05-19T05:41:58.775Z,101427.13
2023-05-19T05:44:30.246Z,101433.83
2023-05-19T05:47:01.295Z,101432.05
2023-05-19T05:49:30.354Z,101429.42
2023-05-19T05:54:32.781Z,101435.19
2023-05-19T05:57:03.936Z,101432.27
2023-05-19T05:59:34.379Z,101436.56
2023-05-19T06:02:03.462Z,101436.04
2023-05-19T06:04:33.543Z,101436.04
2023-05-19T06:07:03.691Z,101434.86
2023-05-19T06:09:35.242Z,101434.20
2023-05-19T06:12:06.758Z,101437.45
2023-05-19T06:15:05.565Z,101434.61
2023-05-19T06:17:57.329Z,101435.55
2023-05-19T06:20:28.229Z,101438.27
2023-05-19T06:23:00.465Z,101438.60
2023-05-19T06:25:29.635Z,101436.69
2023-05-19T06:28:00.713Z,101440.10
2023-05-19T06:30:30.946Z,101441.16
2023-05-19T06:33:29.097Z,101440.92
2023-05-19T06:35:58.630Z,101442.08
2023-05-19T06:38:29.022Z,101441.41
2023-05-19T06:40:59.937Z,101445.41
2023-05-19T06:43:30.601Z,101445.27
2023-05-19T06:46:05.953Z,101447.67
2023-05-19T06:48:35.358Z,101446.96
2023-05-19T06:51:04.852Z,101450.73
2023-05-19T06:53:35.215Z,101448.16
2023-05-19T06:56:06.716Z,101447.46
2023-05-19T06:58:39.771Z,101449.70
2023-05-19T07:01:09.055Z,101447.77
2023-05-19T07:03:45.380Z,101449.96
2023-05-19T07:06:15.109Z,101452.84
2023-05-19T07:08:48.057Z,101449.69
2023-05-19T07:11:18.220Z,101449.45
2023-05-19T07:13:50.277Z,101449.62
2023-05-19T07:16:26.489Z,101445.19
2023-05-19T07:18:56.945Z,101451.87
2023-05-19T07:21:26.159Z,101451.92
2023-05-19T07:23:57.581Z,101453.73
2023-05-19T07:26:28.567Z,101453.77
2023-05-19T07:28:58.843Z,101457.14
2023-05-19T07:31:31.131Z,101458.18
2023-05-19T07:34:01.799Z,101454.57
2023-05-19T07:36:31.657Z,101454.46
2023-05-19T07:39:01.908Z,101449.67
2023-05-19T07:41:32.029Z,101454.32
2023-05-19T07:44:08.044Z,101452.52
2023-05-19T07:46:38.911Z,101457.20
2023-05-19T07:49:09.589Z,101459.43
2023-05-19T07:51:39.768Z,101460.35
2023-05-19T07:54:09.207Z,101462.80
2023-05-19T07:56:39.136Z,101461.16
2023-05-19T07:59:09.400Z,101459.73
2023-05-19T08:01:40.637Z,101457.41
2023-05-19T08:04:13.013Z,101457.30
2023-05-19T08:06:44.758Z,101457.67
2023-05-19T08:09:13.810Z,101455.50
2023-05-19T08:11:42.666Z,101459.46
2023-05-19T08:14:13.732Z,101453.45
2023-05-19T08:16:43.228Z,101445.98
2023-05-19T08:19:12.180Z,101444.30
2023-05-19T08:21:42.746Z,101439.55
2023-05-19T08:24:11.945Z,101439.47
2023-05-19T08:26:42.730Z,101441.25
2023-05-19T08:29:12.081Z,101436.08
2023-05-19T08:31:43.806Z,101438.66
2023-05-19T08:34:38.625Z,101437.73
2023-05-19T08:37:10.198Z,101443.02
2023-05-19T08:39:39.029Z,101443.52
2023-05-19T08:42:10.136Z,101440.06
2023-05-19T08:44:42.573Z,101443.48
2023-05-19T08:47:14.566Z,101445.87
2023-05-19T08:49:45.744Z,101444.42
2023-05-19T08:52:16.419Z,101444.98
2023-05-19T08:55:04.951Z,101443.84
2023-05-19T08:57:34.628Z,101443.69
2023-05-19T09:00:13.868Z,101438.92
2023-05-19T09:02:50.774Z,101444.07
2023-05-19T09:05:30.156Z,101443.23
2023-05-19T09:07:59.305Z,101444.66
2023-05-19T09:10:29.852Z,101444.60
2023-05-19T09:12:58.901Z,101439.67
2023-05-19T09:15:31.207Z,101437.68
2023-05-19T09:18:21.998Z,101439.25
2023-05-19T09:20:51.331Z,101437.21
2023-05-19T09:23:22.594Z,101434.08
2023-05-19T09:25:52.680Z,101431.12
2023-05-19T09:28:25.961Z,101425.77
2023-05-19T09:31:01.438Z,101426.26
2023-05-19T09:33:56.538Z,101424.29
2023-05-19T09:36:27.369Z,101424.42
2023-05-19T09:38:56.377Z,101418.38
2023-05-19T09:41:26.755Z,101421.52
2023-05-19T09:43:57.248Z,101419.29
2023-05-19T09:46:30.657Z,101419.98
2023-05-19T09:48:59.965Z,101415.84
2023-05-19T09:55:06.905Z,101403.64
2023-05-19T09:57:37.555Z,101393.59
2023-05-19T10:00:14.882Z,101396.65
2023-05-19T10:02:47.363Z,101390.52
2023-05-19T10:05:19.517Z,101392.09
2023-05-19T10:07:51.765Z,101394.63
2023-05-19T10:10:23.340Z,101398.50
2023-05-19T10:12:55.103Z,101393.81
2023-05-19T10:15:26.534Z,101402.40
2023-05-19T10:17:59.516Z,101409.55
2023-05-19T10:20:29.649Z,101404.38
2023-05-19T10:23:00.969Z,101409.12
2023-05-19T10:25:35.208Z,101411.25
2023-05-19T10:28:08.266Z,101412.86
2023-05-19T10:30:41.232Z,101414.90
2023-05-19T10:33:15.978Z,101415.91
2023-05-19T10:35:54.428Z,101411.20
2023-05-19T10:38:34.725Z,101407.54
2023-05-19T10:41:11.439Z,101408.58
2023-05-19T10:44:00.179Z,101398.41
2023-05-19T10:46:31.214Z,101400.52
2023-05-19T10:49:00.280Z,101402.01
2023-05-19T10:51:31.730Z,101402.17
2023-05-19T10:54:03.638Z,101399.89
2023-05-19T10:56:36.489Z,101397.96
2023-05-19T10:59:06.321Z,101398.38
2023-05-19T11:01:38.598Z,101389.94
2023-05-19T11:04:11.266Z,101390.26
2023-05-19T11:06:41.573Z,101392.73
2023-05-19T11:09:13.032Z,101396.11
2023-05-19T11:11:52.065Z,101391.56
2023-05-19T11:14:23.535Z,101387.83
2023-05-19T11:16:53.389Z,101392.60
2023-05-19T11:19:26.081Z,101390.25
2023-05-19T11:21:57.705Z,101390.02
2023-05-19T11:24:44.862Z,101390.36
2023-05-19T11:27:31.850Z,101392.85
2023-05-19T11:30:20.413Z,101389.39
2023-05-19T11:32:50.532Z,101398.90
2023-05-19T11:35:21.820Z,101397.42
2023-05-19T11:37:52.712Z,101402.02
2023-05-19T11:40:23.854Z,101406.96
2023-05-19T11:42:53.185Z,101408.00
2023-05-19T11:45:33.577Z,101412.08
2023-05-19T11:48:04.279Z,101411.88
2023-05-19T11:50:34.185Z,101407.59
2023-05-19T11:53:04.300Z,101400.45
2023-05-19T11:55:35.497Z,101395.54
2023-05-19T11:58:06.206Z,101392.17
2023-05-19T12:00:41.715Z,101394.09
2023-05-19T12:03:12.536Z,101386.36
2023-05-19T12:05:48.324Z,101387.39
2023-05-19T12:08:21.904Z,101383.48
2023-05-19T12:10:52.878Z,101376.40
2023-05-19T12:13:23.145Z,101379.77
2023-05-19T12:15:54.085Z,101378.25
2023-05-19T12:18:23.833Z,101376.15
2023-05-19T12:20:54.449Z,101376.73
2023-05-19T12:23:25.440Z,101386.63
2023-05-19T12:25:55.845Z,101393.58
2023-05-19T12:28:26.405Z,101399.98
2023-05-19T12:30:55.474Z,101399.12
2023-05-19T12:33:27.786Z,101398.18
2023-05-19T12:35:58.428Z,101401.77
2023-05-19T12:38:27.950Z,101402.39
2023-05-19T12:40:59.312Z,101404.95
2023-05-19T12:43:28.321Z,101404.61
2023-05-19T12:45:57.549Z,101408.13
2023-05-19T12:48:29.061Z,101410.31
2023-05-19T12:50:58.609Z,101412.32
2023-05-19T12:53:29.180Z,101409.10
2023-05-19T12:55:58.531Z,101405.34
2023-05-19T12:58:29.332Z,101400.02
2023-05-19T13:01:00.421Z,101396.98
2023-05-19T13:03:33.721Z,101386.55
2023-05-19T13:06:03.589Z,101371.90
2023-05-19T13:08:34.198Z,101356.59
2023-05-19T13:11:05.269Z,101363.33
2023-05-19T13:13:35.386Z,101359.80
2023-05-19T13:16:06.296Z,101363.08
2023-05-19T13:18:37.968Z,101370.83
2023-05-19T13:21:08.464Z,101368.88
2023-05-19T13:23:38.352Z,101367.71
2023-05-19T13:26:09.533Z,101363.98
2023-05-19T13:28:39.834Z,101366.74
2023-05-19T13:31:08.784Z,101364.11
2023-05-19T13:33:42.734Z,101364.73
2023-05-19T13:36:12.715Z,101371.15
2023-05-19T13:38:43.132Z,101369.38
2023-05-19T13:41:15.947Z,101370.48
2023-05-19T13:43:44.989Z,101369.88
2023-05-19T13:46:15.341Z,101369.83
2023-05-19T13:48:44.699Z,101371.20
2023-05-19T13:51:13.882Z,101379.89
2023-05-19T13:53:44.580Z,101378.81
2023-05-19T13:56:15.059Z,101381.56
2023-05-19T13:58:45.602Z,101369.82
2023-05-19T14:01:14.700Z,101364.86
2023-05-19T14:03:44.217Z,101371.42
2023-05-19T14:06:13.418Z,101371.80
2023-05-19T14:08:44.380Z,101371.27
2023-05-19T14:11:20.458Z,101370.88
2023-05-19T14:13:53.023Z,101365.60
2023-05-19T14:16:23.368Z,101365.40
2023-05-19T14:18:53.853Z,101364.06
2023-05-19T14:21:23.152Z,101368.16
2023-05-19T14:23:52.145Z,101372.13
2023-05-19T14:26:22.547Z,101373.61
2023-05-19T14:28:51.849Z,101368.48
2023-05-19T14:31:21.071Z,101366.41
2023-05-19T14:33:53.780Z,101365.73
2023-05-19T14:36:22.676Z,101368.04
2023-05-19T14:38:51.478Z,101367.77
2023-05-19T14:41:20.418Z,101364.73
2023-05-19T14:43:51.098Z,101359.70
2023-05-19T14:46:21.181Z,101359.70
2023-05-19T14:48:51.482Z,101368.09
2023-05-19T14:51:21.059Z,101358.90
2023-05-19T14:53:51.085Z,101362.98
2023-05-19T14:56:22.320Z,101360.07
2023-05-19T14:58:51.171Z,101358.45
2023-05-19T15:01:20.078Z,101356.44
2023-05-19T15:03:49.299Z,101360.02
2023-05-19T15:06:19.099Z,101359.11
2023-05-19T15:08:47.840Z,101360.92
2023-05-19T15:11:16.714Z,101362.30
2023-05-19T15:13:47.150Z,101367.42
2023-05-19T15:16:18.287Z,101371.85
2023-05-19T15:18:47.922Z,101370.07
2023-05-19T15:21:16.706Z,101365.90
2023-05-19T15:23:48.584Z,101360.52
2023-05-19T15:26:17.580Z,101364.69
2023-05-19T15:28:47.802Z,101365.91
2023-05-19T15:31:20.083Z,101370.58
2023-05-19T15:34:15.711Z,101373.83
2023-05-19T15:36:45.151Z,101370.00
2023-05-19T15:39:17.539Z,101369.89
2023-05-19T15:41:46.865Z,101367.92
2023-05-19T15:44:15.991Z,101364.75
2023-05-19T15:46:44.846Z,101364.56
2023-05-19T15:49:14.159Z,101364.89
2023-05-19T15:51:43.483Z,101355.44
2023-05-19T15:54:14.958Z,101360.34
2023-05-19T15:56:48.053Z,101359.06
2023-05-19T15:59:17.368Z,101354.50
2023-05-19T16:01:46.636Z,101349.48
2023-05-19T16:04:18.983Z,101347.67
2023-05-19T16:06:49.272Z,101346.05
2023-05-19T16:09:19.928Z,101343.35
2023-05-19T16:11:48.844Z,101343.23
2023-05-19T16:14:18.446Z,101345.90
2023-05-19T16:16:52.583Z,101350.27
2023-05-19T16:19:26.749Z,101345.89
2023-05-19T16:21:56.775Z,101350.88
2023-05-19T16:24:26.327Z,101350.38
2023-05-19T16:26:55.224Z,101348.98
2023-05-19T16:29:25.771Z,101353.73
2023-05-19T16:31:54.904Z,101349.27
2023-05-19T16:35:09.665Z,101345.85
2023-05-19T16:37:39.592Z,101352.80
2023-05-19T16:40:08.803Z,101353.19
2023-05-19T16:42:38.644Z,101348.98
2023-05-19T16:45:09.512Z,101351.86
2023-05-19T16:47:39.077Z,101353.98
2023-05-19T16:50:10.112Z,101350.48
2023-05-19T16:52:41.469Z,101351.92
2023-05-19T16:55:12.565Z,101352.21
2023-05-19T16:57:43.059Z,101346.98
2023-05-19T17:00:13.708Z,101344.86
2023-05-19T17:02:43.162Z,101343.81
2023-05-19T17:05:12.379Z,101346.30
2023-05-19T17:07:41.375Z,101343.40
2023-05-19T17:10:11.820Z,101345.77
2023-05-19T17:12:42.667Z,101344.27
2023-05-19T17:15:13.497Z,101342.13
2023-05-19T17:17:42.298Z,101341.77
2023-05-19T17:20:11.654Z,101337.83
2023-05-19T17:22:41.554Z,101337.83
2023-05-19T17:25:10.475Z,101341.08
2023-05-19T17:27:39.884Z,101338.98
2023-05-19T17:30:12.224Z,101345.48
2023-05-19T17:32:43.129Z,101346.33
2023-05-19T17:35:13.552Z,101348.33
2023-05-19T17:37:43.173Z,101345.59
2023-05-19T17:40:14.627Z,101346.70
2023-05-19T17:42:44.611Z,101348.73
2023-05-19T17:45:15.135Z,101346.10
2023-05-19T17:47:44.502Z,101347.52
2023-05-19T17:50:13.925Z,101349.73
2023-05-19T17:52:42.977Z,101354.22
2023-05-19T17:55:12.445Z,101353.60
2023-05-19T17:57:44.036Z,101350.27
2023-05-19T18:00:14.163Z,101352.77
2023-05-19T18:02:44.735Z,101351.67
2023-05-19T18:05:16.437Z,101354.94
2023-05-19T18:07:46.667Z,101355.98
2023-05-19T18:10:16.612Z,101354.04
2023-05-19T18:12:48.272Z,101357.86
2023-05-19T18:15:18.961Z,101361.36
2023-05-19T18:17:50.148Z,101359.86
2023-05-19T18:20:20.014Z,101353.71
2023-05-19T18:22:51.583Z,101352.58
2023-05-19T18:25:21.546Z,101354.88
2023-05-19T18:27:50.500Z,101354.89
2023-05-19T18:30:21.729Z,101351.61
2023-05-19T18:32:52.600Z,101356.71
2023-05-19T18:35:23.582Z,101356.34
2023-05-19T18:37:55.171Z,101359.03
2023-05-19T18:40:26.836Z,101357.21
2023-05-19T18:42:56.859Z,101358.68
2023-05-19T18:45:26.730Z,101358.14
2023-05-19T18:47:56.933Z,101365.70
2023-05-19T18:50:25.979Z,101367.40
2023-05-19T18:52:55.493Z,101370.38
2023-05-19T18:55:24.465Z,101371.44
2023-05-19T18:57:55.574Z,101376.18
2023-05-19T19:00:28.072Z,101378.98
2023-05-19T19:02:57.879Z,101378.38
2023-05-19T19:05:28.313Z,101380.41
2023-05-19T19:07:58.830Z,101378.10
2023-05-19T19:10:28.701Z,101385.27
2023-05-19T19:12:58.291Z,101378.39
2023-05-19T19:15:28.748Z,101380.95
2023-05-19T19:17:59.239Z,101381.46
2023-05-19T19:20:30.035Z,101383.06
2023-05-19T19:22:59.406Z,101380.90
2023-05-19T19:25:29.078Z,101388.23
2023-05-19T19:27:59.339Z,101390.46
2023-05-19T19:30:31.531Z,101395.08
2023-05-19T19:33:06.958Z,101396.92
2023-05-19T19:35:37.169Z,101389.09
2023-05-19T19:38:08.355Z,101392.73
2023-05-19T19:40:40.500Z,101388.11
2023-05-19T19:43:10.317Z,101391.96
2023-05-19T19:45:42.199Z,101393.89
2023-05-19T19:48:13.354Z,101388.91
2023-05-19T19:50:43.026Z,101386.72
2023-05-19T19:53:13.160Z,101388.65
2023-05-19T19:55:43.992Z,101384.79
2023-05-19T19:58:13.274Z,101383.13
2023-05-19T20:00:43.356Z,101384.96
2023-05-19T20:03:12.488Z,101387.04
2023-05-19T20:05:41.767Z,101385.26
2023-05-19T20:08:10.555Z,101388.48
2023-05-19T20:10:40.643Z,101385.30
2023-05-19T20:13:10.288Z,101386.98
2023-05-19T20:15:39.600Z,101393.14
2023-05-19T20:18:08.702Z,101391.16
2023-05-19T20:20:38.200Z,101386.73
2023-05-19T20:23:08.173Z,101387.84
2023-05-19T20:25:54.790Z,101390.59
2023-05-19T20:28:28.140Z,101390.33
2023-05-19T20:30:58.565Z,101389.75
2023-05-19T20:33:59.390Z,101393.52
2023-05-19T20:36:30.174Z,101395.20
2023-05-19T20:39:00.617Z,101393.06
2023-05-19T20:41:29.498Z,101396.15
2023-05-19T20:43:58.809Z,101390.55
2023-05-19T20:46:29.412Z,101387.56
2023-05-19T20:48:58.922Z,101391.51
2023-05-19T20:51:28.876Z,101389.90
2023-05-19T20:54:00.343Z,101390.11
2023-05-19T20:56:30.966Z,101384.83
2023-05-19T20:58:59.854Z,101382.91
2023-05-19T21:01:30.284Z,101385.14
2023-05-19T21:04:01.452Z,101383.95
2023-05-19T21:06:30.666Z,101383.63
2023-05-19T21:09:05.500Z,101379.02
2023-05-19T21:11:35.639Z,101383.59
2023-05-19T21:14:05.998Z,101384.35
2023-05-19T21:16:39.158Z,101382.95
2023-05-19T21:19:08.932Z,101384.44
2023-05-19T21:21:42.132Z,101385.31
2023-05-19T21:24:13.531Z,101388.27
2023-05-19T21:26:43.115Z,101394.46
2023-05-19T21:29:12.357Z,101397.33
2023-05-19T21:31:42.281Z,101398.99
2023-05-19T21:34:13.388Z,101399.24
2023-05-19T21:36:44.222Z,101397.48
2023-05-19T21:39:15.385Z,101400.58
2023-05-19T21:41:44.601Z,101399.39
2023-05-19T21:44:14.340Z,101396.71
2023-05-19T21:46:45.813Z,101399.02
2023-05-19T21:49:15.970Z,101406.31
2023-05-19T21:51:47.328Z,101401.34
2023-05-19T21:54:17.622Z,101396.74
2023-05-19T21:56:46.647Z,101397.17
2023-05-19T21:59:16.592Z,101396.48
2023-05-19T22:01:46.800Z,101398.44
2023-05-19T22:04:18.540Z,101400.10
2023-05-19T22:06:50.469Z,101400.77
2023-05-19T22:09:22.477Z,101393.60
2023-05-19T22:11:52.175Z,101401.36
2023-05-19T22:14:22.586Z,101395.97
2023-05-19T22:16:51.922Z,101395.47
2023-05-19T22:19:21.897Z,101397.06
2023-05-19T22:22:01.983Z,101400.46
2023-05-19T22:24:39.019Z,101401.52
2023-05-19T22:27:08.651Z,101401.27
2023-05-19T22:29:39.023Z,101399.87
2023-05-19T22:32:12.395Z,101399.11
2023-05-19T22:34:46.606Z,101396.06
2023-05-19T22:37:15.635Z,101401.68
2023-05-19T22:39:45.897Z,101398.95
2023-05-19T22:42:15.775Z,101398.06
2023-05-19T22:44:46.318Z,101400.42
2023-05-19T22:47:15.784Z,101400.35
2023-05-19T22:49:44.916Z,101401.55
2023-05-19T22:52:15.318Z,101399.60
2023-05-19T22:54:44.625Z,101403.40
2023-05-19T22:57:15.736Z,101402.08
2023-05-19T22:59:44.593Z,101397.89
2023-05-19T23:02:16.305Z,101394.41
2023-05-19T23:04:46.890Z,101394.52
2023-05-19T23:07:18.119Z,101395.45
2023-05-19T23:09:48.106Z,101393.58
2023-05-19T23:12:18.604Z,101392.48
2023-05-19T23:14:49.453Z,101397.32
2023-05-19T23:17:20.417Z,101392.45
2023-05-19T23:19:50.403Z,101394.61
2023-05-19T23:22:20.626Z,101394.84
2023-05-19T23:24:51.344Z,101400.96
2023-05-19T23:27:20.221Z,101396.98
2023-05-19T23:29:51.305Z,101396.02
2023-05-19T23:32:20.376Z,101390.80
2023-05-19T23:34:49.749Z,101386.26
2023-05-19T23:37:18.676Z,101386.38
2023-05-19T23:39:50.552Z,101385.91
2023-05-19T23:42:19.497Z,101381.05
2023-05-19T23:44:50.153Z,101380.60
2023-05-19T23:47:18.963Z,101379.39
2023-05-19T23:49:49.174Z,101378.20
2023-05-19T23:52:18.783Z,101379.83
2023-05-19T23:54:49.183Z,101377.65
2023-05-19T23:57:20.344Z,101376.77
2023-05-19T23:59:50.903Z,101378.15
